Preston, MN

7:13 AM CST on February 01, 2015 (GMT -0600)
Eagle Bluff ELC | Change Station
CLOSE
Current Station
Personal Weather Station
Location: Lanesboro, MN
Elevation: 1003 ft
Nearby Weather Stations
Active Advisory: Winter Weather Advisory Active Notice: Public Information Statement

Elev 1003 ft 43.76 °N, 92.00 °W | Updated 1 minute ago

Snow
Snow
14.7 °F
Feels Like 1 °F
N
12.1
Wind Variable Wind from ESE
Gusts 20.6 mph

Today
High -- | Low -- °F
--% Chance of Precip.
Yesterday
High -- | Low -- °F
Precip. -- in
7:25 AM 5:19 PM
Waxing Gibbous, 95% visible
Pressure 30.13 in
Visibility 1.2 miles
Clouds Overcast 1500 ft
Windchill 1 °F
Dew Point 6 °F
Humidity 67%
Rainfall 0.00 in
Snow Depth Not available.
UV 0 out of 12
Pollen .10 out of 12
Air Quality Not available.
Flu Activity Not available.
METAR KRST 011254Z 06016KT 1 1/4SM -SN BR OVC015 M09/M11 A3006 RMK AO2 PK WND 04030/1226 TWR VIS 1 1/2 SLP201 P0003 T10891111

More Conditions Fewer Conditions

Pressure 30.13 in
Visibility 1.2 miles
Clouds Overcast 1500 ft
Windchill 1 °F
Dew Point 6 °F
Humidity 67%
Rainfall 0.00 in
Snow Depth Not available.
UV 0 out of 12
Pollen .10 out of 12
Air Quality Not available.
Flu Activity Not available.
METAR KRST 011254Z 06016KT 1 1/4SM -SN BR OVC015 M09/M11 A3006 RMK AO2 PK WND 04030/1226 TWR VIS 1 1/2 SLP201 P0003 T10891111

More Conditions Fewer Conditions

10-Day Weather Forecast

Almanac

Astronomy

Feb. 01, 2015 Rise Set
Actual Time
Civil Twilight
Nautical Twilight
Astronomical Twilight
Moon
Length of Visible Light
Length of Day
Tomorrow will be .
, % of the Moon is Illuminated

Today's Extremes

State Highs State Lows

Community

WunderPhotos

Upload Photos

1,792,359 photos uploaded!

WunderBlogs® & News

Nearby

Air Quality

  Air Quality AQ Index Pollutant
Not available.

Snow Depth

Station Depth Elevation

Earthquake Activity

City Distance Mag. Time & Date
Minimum magnitude displayed is 2.5.

Coastal Water Temperatures

Place Temperature

Nearby Weather Stations